Time;durP1;ratioP1;P1;durP2;ratioP2;P2;SDS_P1;SDS_P2;PMS_P1;PMS_P2;Temp;Humidity;BMP_temperature;BMP_pressure;BME280_temperature;BME280_humidity;BME280_pressure;Samples;Min_cycle;Max_cycle;Signal;HPM_P1;HPM_P2
2023/02/10 00:01:27;;;;;;;75.22;35.30;;;-3.60;99.90;;;-4.27;100.00;99480.69;4959374;28;20422;-64
2023/02/10 00:03:55;;;;;;;77.22;34.58;;;-3.60;99.90;;;-4.26;100.00;99485.84;4959849;28;20049;-64
2023/02/10 00:06:25;;;;;;;81.82;38.00;;;-3.60;99.90;;;-4.30;100.00;99486.50;4961296;28;20051;-65
2023/02/10 00:08:59;;;;;;;67.70;34.88;;;-3.60;99.90;;;-4.17;100.00;99497.19;4958498;28;20645;-65
2023/02/10 00:14:16;;;;;;;62.92;31.27;;;-3.60;99.90;;;-4.08;100.00;99493.44;4959684;28;20151;-65
2023/02/10 00:16:43;;;;;;;58.20;23.83;;;-3.60;99.90;;;-4.04;100.00;99502.94;4954390;28;20066;-65
2023/02/10 00:19:10;;;;;;;56.70;27.10;;;-3.60;99.90;;;-3.96;100.00;99505.81;4963475;28;20531;-66
2023/02/10 00:21:37;;;;;;;54.60;26.75;;;-3.60;99.90;;;-4.02;100.00;99500.44;4964569;28;20054;-66
2023/02/10 00:24:05;;;;;;;56.42;28.77;;;-3.50;99.90;;;-4.15;100.00;99503.22;4962122;28;20047;-65
2023/02/10 00:26:34;;;;;;;54.25;27.92;;;-3.50;99.90;;;-4.26;100.00;99512.88;4962068;28;20142;-66
2023/02/10 00:29:02;;;;;;;51.50;28.00;;;-3.60;99.90;;;-4.33;100.00;99511.72;4962473;28;20663;-65
2023/02/10 00:31:29;;;;;;;59.60;29.05;;;-3.60;99.90;;;-4.45;100.00;99522.16;4963561;28;20047;-66
2023/02/10 00:33:56;;;;;;;59.80;30.55;;;-3.60;99.90;;;-4.44;100.00;99526.41;4963755;28;20059;-65
2023/02/10 00:36:24;;;;;;;61.40;29.40;;;-3.60;99.90;;;-4.35;100.00;99530.19;4964383;28;20065;-64
2023/02/10 00:38:52;;;;;;;57.97;30.40;;;-3.70;99.90;;;-4.34;100.00;99520.09;4949983;28;20066;-65
2023/02/10 00:41:23;;;;;;;61.90;33.53;;;-3.70;99.90;;;-4.44;100.00;99523.88;4967372;28;20065;-64
2023/02/10 00:43:51;;;;;;;59.05;30.67;;;-3.70;99.90;;;-4.64;100.00;99530.50;4965328;28;20050;-64
2023/02/10 00:46:21;;;;;;;59.38;31.02;;;-3.70;99.90;;;-4.54;100.00;99530.94;4962101;28;20162;-65
2023/02/10 00:48:49;;;;;;;60.63;29.27;;;-3.70;99.90;;;-4.47;100.00;99528.81;4976884;28;20047;-65
2023/02/10 00:51:17;;;;;;;57.60;28.58;;;-3.70;99.90;;;-4.35;100.00;99542.88;4977410;28;20131;-66
2023/02/10 00:53:45;;;;;;;59.72;27.65;;;-3.70;99.90;;;-4.23;100.00;99536.69;4976094;28;20053;-64
2023/02/10 00:56:12;;;;;;;66.45;32.45;;;-3.70;99.90;;;-4.12;100.00;99538.88;4964303;28;20069;-62
2023/02/10 00:58:39;;;;;;;67.20;32.05;;;-3.70;99.90;;;-4.43;100.00;99532.34;4961303;28;20449;-65
2023/02/10 01:01:06;;;;;;;66.85;28.73;;;-3.80;99.90;;;-4.54;100.00;99526.75;4962194;28;20053;-65
2023/02/10 01:03:34;;;;;;;66.78;32.03;;;-3.70;99.90;;;-4.57;100.00;99539.28;4961986;28;20055;-63
2023/02/10 01:06:01;;;;;;;71.18;32.53;;;-3.80;99.90;;;-4.67;100.00;99542.16;4962155;28;20062;-65
2023/02/10 01:08:29;;;;;;;64.30;30.08;;;-3.80;99.90;;;-4.73;100.00;99544.38;4961819;28;20050;-65
2023/02/10 01:11:06;;;;;;;67.00;30.92;;;-3.90;99.90;;;-4.84;100.00;99542.16;4962339;28;20054;-65
2023/02/10 01:13:34;;;;;;;61.17;30.80;;;-3.90;99.90;;;-4.88;100.00;99552.06;4966154;28;20480;-63
2023/02/10 01:16:10;;;;;;;56.75;28.63;;;-3.90;99.90;;;-4.81;100.00;99555.78;4960910;28;20126;-64
2023/02/10 01:18:38;;;;;;;64.40;31.00;;;-4.00;99.90;;;-4.92;100.00;99561.19;4961964;28;20498;-64
2023/02/10 01:21:18;;;;;;;57.65;26.75;;;-4.10;99.90;;;-5.01;100.00;99562.41;4961762;28;20054;-65
2023/02/10 01:23:46;;;;;;;51.92;23.63;;;-4.00;99.90;;;-4.82;100.00;99570.13;4977707;28;20494;-65
2023/02/10 01:26:14;;;;;;;55.33;24.48;;;-4.10;99.90;;;-4.84;100.00;99564.97;4977152;28;20137;-65
2023/02/10 01:28:42;;;;;;;62.05;30.65;;;-4.10;99.90;;;-4.89;100.00;99566.41;4961317;28;20044;-65
2023/02/10 01:31:14;;;;;;;59.08;29.67;;;-4.10;99.90;;;-4.86;100.00;99570.75;4959932;28;20046;-66
2023/02/10 01:33:42;;;;;;;61.10;26.60;;;-4.10;99.90;;;-4.96;100.00;99566.91;4963625;28;20054;-65
2023/02/10 01:36:15;;;;;;;63.80;30.08;;;-4.20;99.90;;;-5.02;100.00;99575.84;4961296;28;20052;-65
2023/02/10 01:38:44;;;;;;;62.28;28.85;;;-4.20;99.90;;;-5.05;100.00;99579.97;4962004;28;20058;-64
2023/02/10 01:41:15;;;;;;;61.50;28.40;;;-4.30;99.90;;;-4.86;100.00;99574.19;4977640;28;20057;-66
2023/02/10 01:44:03;;;;;;;59.15;28.52;;;-4.30;99.90;;;-4.83;100.00;99578.53;4960067;28;20043;-63
2023/02/10 01:46:35;;;;;;;50.78;21.90;;;-4.30;99.90;;;-4.68;100.00;99570.81;4959441;28;20085;-66
2023/02/10 01:49:09;;;;;;;61.30;25.42;;;-4.30;99.90;;;-4.79;100.00;99566.88;4965724;28;20674;-65
2023/02/10 01:52:00;;;;;;;55.00;28.58;;;-4.30;99.90;;;-4.91;100.00;99559.53;4965780;28;20157;-65
2023/02/10 01:54:35;;;;;;;57.25;28.70;;;-4.30;99.90;;;-4.84;100.00;99551.44;4966132;28;20054;-65
2023/02/10 01:57:02;;;;;;;58.03;26.25;;;-4.30;99.90;;;-4.94;100.00;99555.19;4961781;28;20514;-66
2023/02/10 01:59:35;;;;;;;66.30;28.65;;;-4.20;99.90;;;-5.10;100.00;99552.66;4961528;28;20061;-66
2023/02/10 02:02:06;;;;;;;64.40;25.57;;;-4.30;99.90;;;-5.16;100.00;99570.94;4965480;28;20063;-65
2023/02/10 02:04:58;;;;;;;66.35;29.05;;;-4.30;99.90;;;-5.16;100.00;99567.53;4961320;28;20529;-66
2023/02/10 02:07:29;;;;;;;52.60;24.98;;;-4.20;99.90;;;-5.14;100.00;99565.97;4959002;28;20081;-64
2023/02/10 02:09:59;;;;;;;57.22;27.20;;;-4.20;99.90;;;-5.23;100.00;99571.41;4972079;28;20058;-64
2023/02/10 02:13:16;;;;;;;54.95;23.05;;;-4.30;99.90;;;-5.16;100.00;99581.06;4966034;28;20058;-66
2023/02/10 02:16:23;;;;;;;52.50;22.88;;;-4.20;99.90;;;-5.20;100.00;99590.94;4892035;29;20067;-65
2023/02/10 02:19:18;;;;;;;48.20;22.33;;;-4.30;99.90;;;-5.05;100.00;99590.09;4891023;29;20565;-64
2023/02/10 02:22:01;;;;;;;48.08;20.35;;;-4.40;99.90;;;-4.99;100.00;99589.53;4959656;28;20051;-65
2023/02/10 02:24:31;;;;;;;52.13;23.48;;;-4.40;99.90;;;-4.82;100.00;99584.47;4948187;28;20059;-64
2023/02/10 02:27:28;;;;;;;47.67;23.48;;;-4.40;99.90;;;-5.14;100.00;99587.06;4956229;28;20137;-64
2023/02/10 02:30:39;;;;;;;46.67;20.65;;;-4.40;99.90;;;-5.18;100.00;99587.69;4963876;28;20043;-65
2023/02/10 02:33:33;;;;;;;47.35;20.55;;;-4.40;99.90;;;-5.23;100.00;99590.81;4962284;28;20557;-64
2023/02/10 02:36:44;;;;;;;48.63;20.73;;;-4.50;99.90;;;-5.13;100.00;99588.84;4960779;28;20051;-65
2023/02/10 02:39:11;;;;;;;58.05;25.42;;;-4.50;99.90;;;-5.35;100.00;99588.50;4935903;28;20073;-65
2023/02/10 02:41:38;;;;;;;50.67;24.17;;;-4.50;99.90;;;-5.52;100.00;99591.03;4960022;28;20059;-62
2023/02/10 02:44:06;;;;;;;46.88;23.65;;;-4.50;99.90;;;-5.37;100.00;99593.47;4963969;28;20050;-65
2023/02/10 02:47:06;;;;;;;46.35;22.40;;;-4.50;99.90;;;-5.32;100.00;99592.03;4962655;28;20058;-66
2023/02/10 02:49:56;;;;;;;55.70;23.02;;;-4.50;99.90;;;-5.18;100.00;99599.50;4965369;28;20058;-65
2023/02/10 02:53:22;;;;;;;54.28;24.60;;;-4.50;99.90;;;-5.33;100.00;99602.13;4961157;28;20055;-64
2023/02/10 02:55:53;;;;;;;49.50;21.15;;;-4.60;99.90;;;-5.13;100.00;99603.13;4908874;28;20073;-64
2023/02/10 02:58:50;;;;;;;50.05;20.35;;;-4.60;99.90;;;-5.10;100.00;99596.59;4958571;28;20107;-64
2023/02/10 03:01:44;;;;;;;58.33;24.88;;;-4.60;99.90;;;-5.11;100.00;99594.84;4961595;28;20061;-65
2023/02/10 03:04:15;;;;;;;43.92;21.70;;;-4.50;99.90;;;-5.13;100.00;99598.06;4965983;28;20057;-65
2023/02/10 03:06:42;;;;;;;54.67;23.98;;;-4.50;99.90;;;-5.12;100.00;99603.22;4958598;28;20131;-64
2023/02/10 03:09:11;;;;;;;48.65;23.10;;;-4.50;99.90;;;-5.40;100.00;99602.59;4961179;28;20073;-65
2023/02/10 03:11:38;;;;;;;54.70;23.85;;;-4.40;99.90;;;-5.55;100.00;99612.75;4963287;28;20063;-65
2023/02/10 03:14:05;;;;;;;54.78;25.23;;;-4.50;99.90;;;-5.62;100.00;99611.53;4960638;28;20052;-64
2023/02/10 03:16:32;;;;;;;60.72;26.95;;;-4.50;99.90;;;-5.53;100.00;99612.03;4958889;28;20070;-65
2023/02/10 03:18:59;;;;;;;57.75;28.17;;;-4.50;99.90;;;-5.69;100.00;99610.34;4958728;28;20050;-65
2023/02/10 03:21:26;;;;;;;60.42;25.00;;;-4.60;99.90;;;-5.65;100.00;99613.91;4958618;28;20058;-65
2023/02/10 03:23:53;;;;;;;60.13;25.60;;;-4.60;99.90;;;-5.73;100.00;99612.59;4962116;28;20054;-65
2023/02/10 03:26:20;;;;;;;60.30;27.92;;;-4.60;99.90;;;-5.68;100.00;99616.25;4966735;28;20055;-65
2023/02/10 03:28:47;;;;;;;52.00;22.45;;;-4.60;99.90;;;-5.47;100.00;99621.63;4964151;28;20066;-65
2023/02/10 03:31:14;;;;;;;66.28;24.05;;;-4.70;99.90;;;-5.68;100.00;99621.31;4962013;28;20047;-63
2023/02/10 03:33:41;;;;;;;52.28;23.52;;;-4.70;99.90;;;-5.71;100.00;99628.75;4956523;28;20138;-64
2023/02/10 03:36:08;;;;;;;56.58;23.70;;;-4.70;99.90;;;-5.59;100.00;99626.00;4974228;28;20061;-63
2023/02/10 03:38:35;;;;;;;59.17;24.88;;;-4.80;99.90;;;-5.72;100.00;99632.94;4962414;28;20534;-64
2023/02/10 03:41:03;;;;;;;58.15;25.25;;;-4.80;99.90;;;-5.51;100.00;99635.75;4961851;28;20054;-65
2023/02/10 03:43:30;;;;;;;55.47;23.90;;;-4.80;99.90;;;-5.46;100.00;99625.88;4959888;28;20716;-65
2023/02/10 03:46:03;;;;;;;61.33;27.27;;;-4.80;99.90;;;-5.57;100.00;99616.84;4959741;28;20070;-64
2023/02/10 03:48:31;;;;;;;59.00;25.17;;;-4.80;99.90;;;-5.75;100.00;99624.31;4960483;28;20093;-65
2023/02/10 03:51:00;;;;;;;53.88;26.63;;;-4.80;99.90;;;-5.93;100.00;99632.63;4960134;28;20075;-64
2023/02/10 03:53:28;;;;;;;60.33;24.85;;;-4.80;99.90;;;-5.87;100.00;99629.56;4963250;28;20055;-65
2023/02/10 03:55:55;;;;;;;58.13;25.30;;;-4.80;99.90;;;-5.96;100.00;99640.06;4964707;28;20050;-65
2023/02/10 03:58:23;;;;;;;50.75;24.50;;;-4.90;99.90;;;-5.99;100.00;99637.38;4966681;28;20051;-65
2023/02/10 04:00:50;;;;;;;53.90;25.55;;;-4.90;99.90;;;-6.02;100.00;99638.84;4965762;28;20637;-66
2023/02/10 04:03:18;;;;;;;46.33;22.48;;;-4.90;99.90;;;-5.94;100.00;99638.47;4962694;28;20478;-65
2023/02/10 04:05:45;;;;;;;49.75;21.10;;;-4.90;99.90;;;-5.83;100.00;99643.25;4962476;28;20046;-64
2023/02/10 04:08:13;;;;;;;47.13;20.90;;;-5.00;99.90;;;-5.72;100.00;99642.19;4966657;28;20082;-64
2023/02/10 04:10:40;;;;;;;57.00;27.10;;;-5.00;99.90;;;-5.71;100.00;99637.19;4981065;28;20130;-64
2023/02/10 04:13:07;;;;;;;54.22;24.75;;;-5.00;99.90;;;-5.59;100.00;99644.59;4966471;28;20057;-64
2023/02/10 04:15:34;;;;;;;55.50;23.05;;;-5.00;99.90;;;-5.63;100.00;99651.91;4963474;28;20556;-64
2023/02/10 04:18:01;;;;;;;49.72;20.38;;;-5.00;99.90;;;-5.65;100.00;99653.53;4962536;28;20070;-65
2023/02/10 04:20:28;;;;;;;49.00;20.98;;;-5.10;99.90;;;-5.72;100.00;99650.66;4964867;28;20059;-65
2023/02/10 04:22:55;;;;;;;53.47;22.23;;;-5.10;99.90;;;-5.69;100.00;99655.00;4963298;28;20481;-64
2023/02/10 04:25:22;;;;;;;45.50;19.60;;;-5.10;99.90;;;-5.70;100.00;99653.28;4964130;28;20128;-64
2023/02/10 04:27:49;;;;;;;50.88;22.20;;;-5.10;99.90;;;-5.82;100.00;99660.16;4963026;28;20046;-64
2023/02/10 04:30:16;;;;;;;48.13;22.42;;;-5.10;99.90;;;-5.77;100.00;99654.59;4963795;28;20063;-65
2023/02/10 04:32:43;;;;;;;48.90;25.05;;;-5.10;99.90;;;-5.79;100.00;99663.75;4964823;28;20506;-64
2023/02/10 04:35:10;;;;;;;48.80;22.98;;;-5.20;99.90;;;-6.02;100.00;99661.59;4963590;28;20509;-65
2023/02/10 04:37:37;;;;;;;49.45;22.55;;;-5.10;99.90;;;-5.95;100.00;99664.59;4962467;28;20058;-64
2023/02/10 04:40:05;;;;;;;47.22;20.98;;;-5.10;99.90;;;-5.88;100.00;99661.56;4962316;28;20051;-65
2023/02/10 04:42:31;;;;;;;47.03;19.48;;;-5.20;99.90;;;-5.81;100.00;99664.44;4963005;28;20055;-64
2023/02/10 04:44:59;;;;;;;55.97;26.05;;;-5.20;99.90;;;-6.04;100.00;99668.22;4965001;28;20043;-66
2023/02/10 04:47:27;;;;;;;55.30;26.52;;;-5.10;99.90;;;-6.03;100.00;99673.38;4962455;28;20130;-63
2023/02/10 04:49:55;;;;;;;82.93;35.33;;;-5.10;99.90;;;-6.02;100.00;99671.72;4960894;28;20433;-65
2023/02/10 04:52:25;;;;;;;80.32;33.63;;;-5.10;99.90;;;-5.85;100.00;99677.72;4962549;28;20054;-65
2023/02/10 04:54:52;;;;;;;80.85;33.80;;;-5.10;99.90;;;-5.83;100.00;99668.56;4960261;28;21587;-65
2023/02/10 04:57:19;;;;;;;57.28;23.42;;;-5.10;99.90;;;-5.95;100.00;99668.78;4962477;28;20059;-65
2023/02/10 04:59:46;;;;;;;54.00;25.25;;;-5.10;99.90;;;-5.77;100.00;99677.34;4977415;28;20054;-64
2023/02/10 05:02:12;;;;;;;48.20;20.70;;;-5.10;99.90;;;-5.74;100.00;99671.59;4961238;28;20051;-64
2023/02/10 05:04:40;;;;;;;56.63;22.65;;;-5.10;99.90;;;-5.60;100.00;99672.34;4962075;28;20510;-64
2023/02/10 05:07:09;;;;;;;50.40;24.92;;;-5.00;99.90;;;-5.86;100.00;99674.31;4961562;28;20046;-65
2023/02/10 05:09:39;;;;;;;42.75;19.52;;;-4.90;99.90;;;-5.64;100.00;99678.03;4964540;28;20070;-63
2023/02/10 05:12:06;;;;;;;48.20;21.08;;;-4.90;99.90;;;-5.51;100.00;99677.91;4966163;28;20493;-64
2023/02/10 05:14:33;;;;;;;54.03;22.95;;;-4.80;99.90;;;-5.73;100.00;99680.91;4961780;28;20055;-64
2023/02/10 05:17:00;;;;;;;55.53;23.83;;;-4.70;99.90;;;-5.84;100.00;99681.97;4962524;28;20073;-64
2023/02/10 05:19:27;;;;;;;51.83;23.77;;;-4.70;99.90;;;-5.65;100.00;99691.47;4961169;28;20054;-63
2023/02/10 05:21:54;;;;;;;55.35;25.80;;;-4.70;99.90;;;-5.60;100.00;99692.59;4960023;28;20054;-65
2023/02/10 05:24:21;;;;;;;93.38;40.50;;;-4.60;99.90;;;-5.71;100.00;99687.78;4963842;28;20038;-64
2023/02/10 05:26:51;;;;;;;77.80;35.80;;;-4.60;99.90;;;-5.40;100.00;99691.16;4959384;28;20059;-64
2023/02/10 05:29:18;;;;;;;73.00;33.38;;;-4.60;99.90;;;-5.30;100.00;99691.72;4959481;28;20051;-64
2023/02/10 05:31:45;;;;;;;79.10;32.53;;;-4.50;99.90;;;-5.31;100.00;99700.13;4962390;28;20055;-64
2023/02/10 05:34:12;;;;;;;93.38;33.28;;;-4.50;99.90;;;-5.42;100.00;99697.78;4962441;28;20043;-65
2023/02/10 05:36:39;;;;;;;77.28;38.38;;;-4.40;99.90;;;-5.42;100.00;99693.59;4962944;28;20058;-65
2023/02/10 05:39:24;;;;;;;83.63;36.00;;;-4.30;99.90;;;-5.34;100.00;99699.06;4962837;28;20051;-64
2023/02/10 05:41:57;;;;;;;68.10;30.40;;;-4.30;99.90;;;-5.26;100.00;99705.44;4961712;28;20911;-64
2023/02/10 05:44:27;;;;;;;66.32;28.92;;;-4.30;99.90;;;-5.26;100.00;99701.22;4962299;28;20398;-64
2023/02/10 05:46:54;;;;;;;57.75;28.48;;;-4.20;99.90;;;-5.38;100.00;99695.50;4964298;28;20429;-64
2023/02/10 05:49:21;;;;;;;60.67;30.33;;;-4.20;99.90;;;-5.48;100.00;99698.31;4960336;28;20043;-63
2023/02/10 05:51:48;;;;;;;50.47;26.80;;;-4.20;99.90;;;-5.12;100.00;99699.44;4958790;28;20415;-65
2023/02/10 05:54:18;;;;;;;54.95;26.77;;;-4.20;99.90;;;-5.24;100.00;99692.88;4962558;28;20371;-64
2023/02/10 05:56:46;;;;;;;60.92;35.03;;;-4.20;99.90;;;-5.43;100.00;99701.97;4961676;28;20061;-64
2023/02/10 05:59:14;;;;;;;63.75;33.63;;;-4.10;99.90;;;-5.05;100.00;99708.25;4963372;28;20152;-64
2023/02/10 06:01:41;;;;;;;81.85;46.97;;;-4.10;99.90;;;-5.21;100.00;99704.00;4960506;28;20069;-64
2023/02/10 06:04:08;;;;;;;60.42;33.80;;;-4.10;99.90;;;-5.03;100.00;99698.19;4961844;28;20054;-64
2023/02/10 06:06:36;;;;;;;64.00;34.67;;;-4.10;99.90;;;-5.02;100.00;99708.41;4975736;28;20080;-63
2023/02/10 06:09:03;;;;;;;231.82;101.85;;;-4.10;99.90;;;-5.06;100.00;99712.44;4961485;28;20501;-65
2023/02/10 06:11:31;;;;;;;90.43;42.30;;;-4.00;99.90;;;-5.16;100.00;99711.84;4964942;28;20070;-63
2023/02/10 06:13:58;;;;;;;131.05;66.22;;;-3.90;99.90;;;-5.29;100.00;99712.84;4962303;28;20058;-64
2023/02/10 06:16:25;;;;;;;179.35;84.07;;;-3.90;99.90;;;-5.32;100.00;99722.81;4959405;28;20078;-64
2023/02/10 06:18:52;;;;;;;69.20;33.30;;;-3.90;99.90;;;-5.16;100.00;99722.84;4958897;28;20182;-65
2023/02/10 06:21:19;;;;;;;71.13;33.00;;;-3.90;99.90;;;-5.14;100.00;99728.00;4964112;28;20062;-65
2023/02/10 06:23:46;;;;;;;64.90;33.33;;;-3.80;99.90;;;-5.05;100.00;99723.44;4963806;28;20533;-65
2023/02/10 06:26:13;;;;;;;60.55;30.73;;;-3.90;99.90;;;-4.94;100.00;99727.41;4960603;28;20498;-65
2023/02/10 06:28:39;;;;;;;59.90;31.25;;;-3.90;99.90;;;-5.13;100.00;99725.56;4953379;28;20043;-64
2023/02/10 06:31:07;;;;;;;51.50;28.63;;;-3.80;99.90;;;-4.87;100.00;99729.47;4962883;28;20046;-65
2023/02/10 06:33:35;;;;;;;60.40;30.55;;;-3.80;99.90;;;-5.01;100.00;99732.09;4963949;28;20105;-64
2023/02/10 06:36:05;;;;;;;55.75;27.42;;;-3.80;99.90;;;-4.83;100.00;99735.59;4962125;28;20517;-64
2023/02/10 06:38:33;;;;;;;60.92;30.77;;;-3.80;99.90;;;-5.02;100.00;99741.31;4964233;28;20138;-64
2023/02/10 06:41:01;;;;;;;61.08;30.63;;;-3.70;99.90;;;-4.64;100.00;99725.63;4962405;28;20103;-64
2023/02/10 06:43:28;;;;;;;60.70;27.35;;;-3.70;99.90;;;-4.80;100.00;99725.59;4976611;28;20166;-61
2023/02/10 06:45:55;;;;;;;55.13;26.55;;;-3.60;99.90;;;-4.47;100.00;99735.75;4961799;28;20046;-64
2023/02/10 06:48:22;;;;;;;62.67;31.70;;;-3.60;99.90;;;-4.40;100.00;99745.44;4960606;28;20051;-64
2023/02/10 06:50:49;;;;;;;64.00;35.42;;;-3.50;99.90;;;-4.20;100.00;99738.81;4960846;28;20133;-63
2023/02/10 06:53:17;;;;;;;56.47;30.55;;;-3.30;99.90;;;-4.04;100.00;99730.31;4977146;28;20051;-64
2023/02/10 06:55:44;;;;;;;56.90;27.95;;;-3.30;99.90;;;-4.13;100.00;99742.53;4960929;28;20137;-65
2023/02/10 06:58:11;;;;;;;60.28;29.52;;;-3.30;99.90;;;-4.53;100.00;99736.31;4959611;28;20061;-65
2023/02/10 07:00:38;;;;;;;60.58;30.85;;;-3.20;99.90;;;-4.71;100.00;99735.38;4959667;28;20541;-64
2023/02/10 07:03:05;;;;;;;73.50;34.83;;;-3.10;99.90;;;-4.76;100.00;99741.84;4960700;28;20145;-65
2023/02/10 07:05:35;;;;;;;63.72;30.20;;;-3.20;99.90;;;-4.68;100.00;99743.13;4958063;28;20491;-65
2023/02/10 07:08:03;;;;;;;66.32;32.13;;;-3.20;99.90;;;-4.46;100.00;99742.59;4958657;28;20059;-64
2023/02/10 07:10:34;;;;;;;67.00;32.03;;;-3.20;99.90;;;-4.43;100.00;99748.66;4956277;28;21750;-65
2023/02/10 07:13:01;;;;;;;65.50;32.80;;;-3.20;99.90;;;-4.43;100.00;99746.13;4964352;28;20129;-65
2023/02/10 07:15:28;;;;;;;65.10;32.92;;;-3.10;99.90;;;-4.46;100.00;99755.25;4956799;28;20062;-64
2023/02/10 07:17:55;;;;;;;61.78;33.95;;;-3.10;99.90;;;-4.38;100.00;99758.19;4957753;28;20059;-64
2023/02/10 07:20:23;;;;;;;66.47;34.55;;;-3.10;99.90;;;-4.12;100.00;99754.44;4958312;28;20086;-65
2023/02/10 07:22:51;;;;;;;59.83;31.58;;;-3.00;99.90;;;-3.95;100.00;99750.22;4961901;28;20051;-64
2023/02/10 07:25:19;;;;;;;67.85;34.33;;;-3.00;99.90;;;-3.63;100.00;99760.28;4960761;28;20112;-64
2023/02/10 07:27:45;;;;;;;66.20;34.00;;;-2.90;99.90;;;-3.61;100.00;99755.28;4972075;28;20043;-65
2023/02/10 07:30:13;;;;;;;70.18;37.25;;;-2.70;99.90;;;-3.61;100.00;99756.16;4959975;28;20058;-65
2023/02/10 07:32:42;;;;;;;64.93;35.33;;;-2.60;99.90;;;-3.38;100.00;99759.78;4958221;28;20130;-65
2023/02/10 07:35:09;;;;;;;69.25;36.10;;;-2.60;99.90;;;-3.52;100.00;99760.81;4957476;28;20566;-65
2023/02/10 07:37:39;;;;;;;66.40;35.35;;;-2.40;99.90;;;-3.45;100.00;99759.44;4959276;28;20556;-65
2023/02/10 07:40:07;;;;;;;59.80;32.15;;;-2.40;99.90;;;-3.25;100.00;99760.38;4960679;28;20043;-63
2023/02/10 07:42:35;;;;;;;69.63;37.17;;;-2.30;99.90;;;-3.23;100.00;99761.34;4964433;28;20125;-64
2023/02/10 07:45:03;;;;;;;68.82;36.70;;;-2.30;99.90;;;-3.35;100.00;99756.56;4963225;28;20042;-65
2023/02/10 07:47:30;;;;;;;66.05;33.90;;;-2.30;99.90;;;-3.50;100.00;99745.66;4961263;28;20055;-65
2023/02/10 07:49:57;;;;;;;68.57;35.47;;;-2.40;99.90;;;-3.32;100.00;99749.06;4960555;28;20078;-64
2023/02/10 07:52:24;;;;;;;73.93;39.58;;;-2.50;99.90;;;-3.46;100.00;99739.94;4965206;28;20044;-65
2023/02/10 07:54:51;;;;;;;75.38;40.10;;;-2.40;99.90;;;-3.65;100.00;99746.66;4958700;28;20051;-64
2023/02/10 07:57:19;;;;;;;94.43;48.03;;;-2.40;99.90;;;-3.81;100.00;99742.50;4961045;28;20128;-65
2023/02/10 07:59:46;;;;;;;79.93;39.80;;;-2.40;99.90;;;-3.50;100.00;99746.53;4959876;28;20061;-64
2023/02/10 08:02:13;;;;;;;77.20;37.88;;;-2.50;99.90;;;-3.29;100.00;99754.28;4958089;28;20597;-64
2023/02/10 08:04:40;;;;;;;71.75;35.40;;;-2.60;99.90;;;-3.05;100.00;99743.56;4957624;28;20066;-64
2023/02/10 08:07:10;;;;;;;70.63;38.50;;;-2.40;99.90;;;-3.13;100.00;99738.09;4957043;28;20075;-64
2023/02/10 08:09:38;;;;;;;64.80;36.80;;;-2.40;99.90;;;-3.07;100.00;99738.38;4959468;28;20059;-64
2023/02/10 08:12:05;;;;;;;69.80;36.08;;;-2.30;99.90;;;-2.88;100.00;99744.31;4961126;28;20055;-64
2023/02/10 08:14:32;;;;;;;63.92;35.03;;;-2.30;99.90;;;-2.83;100.00;99743.75;4956307;28;20059;-66
2023/02/10 08:16:59;;;;;;;66.57;35.67;;;-2.20;99.90;;;-2.72;100.00;99736.56;4957187;28;20062;-65
2023/02/10 08:19:26;;;;;;;68.72;37.72;;;-2.10;99.90;;;-2.55;100.00;99729.72;4959215;28;20450;-65
2023/02/10 08:21:53;;;;;;;68.35;35.83;;;-2.00;99.90;;;-2.57;100.00;99732.19;4959314;28;20047;-64
2023/02/10 08:24:20;;;;;;;70.28;36.63;;;-2.00;99.90;;;-2.59;100.00;99731.25;4963775;28;20518;-65
2023/02/10 08:26:47;;;;;;;70.40;36.47;;;-1.90;99.90;;;-2.67;100.00;99729.16;4959426;28;20482;-63
2023/02/10 08:29:14;;;;;;;68.20;37.08;;;-1.80;99.90;;;-2.78;100.00;99731.22;4959491;28;20776;-64
2023/02/10 08:31:41;;;;;;;67.28;35.97;;;-1.80;99.90;;;-2.43;100.00;99731.91;4960327;28;20137;-63
2023/02/10 08:34:18;;;;;;;60.45;32.88;;;-1.80;99.90;;;-2.35;100.00;99739.09;4958852;28;20058;-64
2023/02/10 08:36:45;;;;;;;61.15;33.50;;;-1.70;99.90;;;-2.08;100.00;99733.41;4960299;28;20055;-64
2023/02/10 08:39:14;;;;;;;58.08;32.08;;;-1.50;99.90;;;-1.88;100.00;99738.50;4959483;28;20046;-65
2023/02/10 08:41:41;;;;;;;81.63;40.30;;;-1.30;99.90;;;-1.88;100.00;99729.16;4959720;28;20169;-64
2023/02/10 08:44:12;;;;;;;70.90;36.00;;;-1.00;99.90;;;-1.48;100.00;99721.47;4976209;28;20142;-65
2023/02/10 08:46:41;;;;;;;75.85;37.50;;;-0.70;99.90;;;-1.36;100.00;99722.78;4961932;28;20051;-64
2023/02/10 08:49:08;;;;;;;59.42;32.80;;;;;;;-1.27;100.00;99720.59;4963089;28;20121;-62
2023/02/10 08:51:38;;;;;;;64.40;34.28;;;-0.30;99.90;;;-1.33;100.00;99716.09;4962000;28;20050;-62
2023/02/10 08:54:06;;;;;;;65.07;35.67;;;-0.10;99.90;;;-1.14;100.00;99716.81;4962368;28;20090;-64
2023/02/10 08:56:33;;;;;;;62.13;34.47;;;-0.10;99.90;;;-0.85;100.00;99705.19;4963549;28;20402;-65
2023/02/10 08:59:00;;;;;;;62.47;32.67;;;0.00;99.90;;;-0.95;100.00;99709.06;4961476;28;20047;-65
2023/02/10 09:01:27;;;;;;;58.20;34.35;;;0.10;99.90;;;-0.93;100.00;99707.44;4963559;28;20167;-65
2023/02/10 09:03:56;;;;;;;67.88;39.63;;;0.10;99.90;;;-0.99;100.00;99709.75;4963413;28;20639;-65
2023/02/10 09:06:40;;;;;;;62.97;36.35;;;0.30;99.90;;;-1.01;100.00;99713.06;4961930;28;20455;-64
2023/02/10 09:09:13;;;;;;;64.07;34.75;;;0.40;99.90;;;-1.04;100.00;99720.59;4964200;28;20047;-64
2023/02/10 09:11:41;;;;;;;60.45;34.15;;;0.40;99.90;;;-0.99;100.00;99714.00;4964592;28;20138;-64
2023/02/10 09:14:08;;;;;;;64.32;35.58;;;0.40;99.90;;;-0.64;100.00;99720.38;4963220;28;20047;-65
2023/02/10 09:16:35;;;;;;;69.93;36.45;;;0.30;99.90;;;-0.62;100.00;99726.41;4962282;28;20051;-66
2023/02/10 09:19:03;;;;;;;59.95;34.08;;;0.30;99.90;;;-0.68;100.00;99714.31;4962204;28;20135;-65
2023/02/10 09:21:33;;;;;;;61.45;33.78;;;0.40;99.90;;;-0.59;100.00;99716.34;4965047;28;20082;-67
2023/02/10 09:24:13;;;;;;;61.58;34.90;;;0.50;99.90;;;-0.65;100.00;99716.97;4962575;28;20047;-67
2023/02/10 09:26:40;;;;;;;66.20;37.33;;;0.50;99.90;;;-0.87;100.00;99717.88;4960912;28;20074;-67
2023/02/10 09:29:11;;;;;;;94.07;54.47;;;0.50;99.90;;;-0.81;100.00;99713.81;4958609;28;20146;-67
2023/02/10 09:31:38;;;;;;;74.28;41.75;;;0.50;99.90;;;-0.71;100.00;99726.97;4960576;28;20143;-67
2023/02/10 09:34:05;;;;;;;65.05;36.22;;;0.50;99.90;;;-0.59;100.00;99728.22;4963540;28;20480;-68
2023/02/10 09:36:32;;;;;;;63.58;34.80;;;0.60;99.90;;;-0.28;100.00;99727.63;4975588;28;20133;-68
2023/02/10 09:38:59;;;;;;;60.60;33.58;;;0.60;99.90;;;-0.12;100.00;99724.78;4964532;28;20055;-67
2023/02/10 09:41:35;;;;;;;54.92;32.05;;;0.70;99.90;;;-0.02;100.00;99720.91;4963147;28;20055;-67
2023/02/10 09:44:26;;;;;;;55.22;32.22;;;0.80;99.90;;;-0.17;100.00;99720.34;4962897;28;20117;-67
2023/02/10 09:47:09;;;;;;;53.58;32.08;;;0.80;99.90;;;-0.03;100.00;99721.69;4977096;28;20054;-67
2023/02/10 09:50:10;;;;;;;55.45;31.30;;;0.80;99.90;;;0.26;100.00;99721.81;4965187;28;20055;-67
2023/02/10 09:53:13;;;;;;;53.08;30.70;;;1.00;99.90;;;0.53;100.00;99719.28;4948902;28;20546;-67
2023/02/10 09:55:57;;;;;;;53.38;29.08;;;1.30;99.90;;;0.48;100.00;99718.25;4977379;28;20051;-67
2023/02/10 09:58:35;;;;;;;59.28;31.17;;;1.60;99.90;;;0.51;100.00;99719.22;4976026;28;20055;-67
2023/02/10 10:01:27;;;;;;;53.42;30.25;;;1.90;99.90;;;0.46;100.00;99713.13;4958335;28;20090;-67
2023/02/10 10:04:20;;;;;;;50.05;30.40;;;2.00;99.90;;;0.45;100.00;99716.47;4960778;28;20510;-68
2023/02/10 10:07:05;;;;;;;46.53;28.45;;;2.20;99.90;;;0.62;100.00;99720.44;4962928;28;20161;-67
2023/02/10 10:09:56;;;;;;;54.47;32.40;;;2.20;99.90;;;0.82;100.00;99721.06;4958515;28;20082;-67
2023/02/10 10:12:23;;;;;;;61.13;31.60;;;2.30;99.90;;;1.05;100.00;99708.13;4960746;28;20196;-67
2023/02/10 10:14:52;;;;;;;51.25;28.40;;;;;;;1.31;100.00;99706.31;4961860;28;20051;-67
2023/02/10 10:17:44;;;;;;;52.35;31.35;;;;;;;1.25;100.00;99712.13;4955411;28;20142;-68
2023/02/10 10:20:17;;;;;;;49.65;29.98;;;;;;;1.52;100.00;99715.41;4960765;28;20047;-67
2023/02/10 10:23:07;;;;;;;52.33;31.13;;;;;;;1.34;100.00;99718.31;4960590;28;20051;-67